Appleton, MN

10:55 PM CDT on September 25, 2017 (GMT -0500)
Appleton Municipal

Weather History for KAQP - March, 2013

Change the Weather History Date:

Saturday, March 9, 2013

  Actual Average Record
Temperature  
Mean Temperature 32 °F -  
Max Temperature 35 °F 27 °F 57 °F (2015)
Min Temperature 28 °F 11 °F -9 °F (2003)
Degree Days  
Heating Degree Days 34    
Moisture  
Dew Point 32 °F    
Average Humidity 94    
Maximum Humidity 100    
Minimum Humidity 86    
Precipitation  
Precipitation 0.99 in - - ()
Sea Level Pressure  
Sea Level Pressure 29.81 in    
Wind  
Wind Speed 8 mph (NE)    
Max Wind Speed 31 mph    
Max Gust Speed 37 mph    
Visibility 2 miles    
Events Rain , Snow    
Averages and records for this station are not official NWS values.
T = Trace of Precipitation, MM = Missing Value Source: NWS Daily Summary

Daily Weather History Graph

Daily Weather History Graph

Search for Another Location

Airport or City:

Trip Planner

Search our weather history database for the weather conditions in past years. The results will help you decide how hot, cold, wet, or windy it might be!

Date:

Astronomy

Mar. 09, 2013 Rise Set
Actual Time 6:47 AM CST 6:22 PM CST
Civil Twilight 6:17 AM CST 6:51 PM CST
Nautical Twilight 5:43 AM CST 7:26 PM CST
Astronomical Twilight 5:09 AM CST 8:00 PM CST
Moon 5:16 AM CST (3/9) 4:22 PM CST (3/9)
Length of Visible Light 12h 34m
Length of Day
11h 35m
Waning Crescent, 5% of the Moon is Illuminated
Mar 9
Waning Crescent
Mar 11
New
Mar 19
First Quarter
Mar 27
Full
Apr 2
Last Quarter

Hourly Weather History & Observations

Time (CST) Temp. Windchill Dew Point Humidity Pressure Visibility Wind Dir Wind Speed Gust Speed Precip Events Conditions
12:14 AM 33.8 °F 28.6 °F 30.2 °F 87% 29.97 in 2.5 mi ESE 5.8 mph - N/A   Overcast
12:33 AM 33.8 °F 27.7 °F 32.0 °F 93% 29.95 in 2.0 mi ESE 6.9 mph - 0.01 in   Overcast
12:53 AM 33.8 °F 28.6 °F 32.0 °F 93% 29.94 in 2.0 mi SE 5.8 mph - 0.03 in Rain Rain
1:13 AM 33.8 °F 28.6 °F 32.0 °F 93% 29.94 in 2.0 mi SE 5.8 mph - 0.03 in Rain Rain
1:33 AM 33.8 °F 28.6 °F 32.0 °F 93% 29.93 in 2.0 mi SE 5.8 mph - 0.08 in   Overcast
1:53 AM 33.8 °F 29.6 °F 32.0 °F 93% 29.93 in 2.0 mi SE 4.6 mph - 0.14 in   Overcast
2:13 AM 33.8 °F 29.6 °F 32.0 °F 93% 29.92 in 2.0 mi SE 4.6 mph - 0.05 in   Overcast
2:33 AM 33.8 °F 29.6 °F 32.0 °F 93% 29.91 in 2.0 mi SE 4.6 mph - 0.09 in   Overcast
2:53 AM 33.8 °F 29.6 °F 32.0 °F 93% 29.90 in 2.0 mi SE 4.6 mph - 0.12 in   Overcast
3:13 AM 33.8 °F 29.6 °F 32.0 °F 93% 29.88 in 2.5 mi SE 4.6 mph - 0.02 in   Overcast
3:33 AM 33.8 °F 29.6 °F 32.0 °F 93% 29.87 in 2.5 mi SE 4.6 mph - 0.03 in   Overcast
3:53 AM 33.8 °F 28.6 °F 32.0 °F 93% 29.86 in 2.5 mi SE 5.8 mph - 0.04 in   Overcast
4:13 AM 33.8 °F 30.8 °F 33.8 °F 100% 29.86 in 2.5 mi SE 3.5 mph - 0.01 in   Overcast
4:33 AM 33.8 °F - 33.8 °F 100% 29.86 in 2.5 mi Calm Calm - 0.02 in   Overcast
4:53 AM 33.8 °F 30.8 °F 33.8 °F 100% 29.85 in 2.5 mi East 3.5 mph - 0.03 in   Overcast
5:13 AM 33.8 °F 30.8 °F 33.8 °F 100% 29.85 in 2.0 mi ESE 3.5 mph - N/A   Overcast
5:34 AM 33.8 °F 29.6 °F 33.8 °F 100% 29.84 in 1.8 mi ESE 4.6 mph - N/A   Overcast
5:53 AM 33.8 °F 30.8 °F 33.8 °F 100% 29.83 in 1.8 mi ESE 3.5 mph - 0.01 in   Overcast
6:13 AM 33.8 °F 30.8 °F 33.8 °F 100% 29.83 in 1.8 mi SE 3.5 mph - 0.01 in   Overcast
6:34 AM 33.8 °F 29.6 °F 33.8 °F 100% 29.81 in 1.5 mi SE 4.6 mph - 0.01 in   Overcast
6:53 AM 33.8 °F 30.8 °F 33.8 °F 100% 29.82 in 2.0 mi SE 3.5 mph - 0.02 in   Overcast
7:13 AM 35.6 °F - 33.8 °F 93% 29.81 in 1.5 mi Calm Calm - 0.01 in   Overcast
7:33 AM 35.6 °F - 33.8 °F 93% 29.80 in 1.2 mi Calm Calm - 0.01 in   Overcast
7:54 AM 35.6 °F 32.8 °F 33.8 °F 93% 29.80 in 1.2 mi ESE 3.5 mph - 0.02 in   Overcast
8:13 AM 35.6 °F 32.8 °F 33.8 °F 93% 29.79 in 1.2 mi East 3.5 mph - 0.01 in   Overcast
8:33 AM 35.6 °F 32.8 °F 33.8 °F 93% 29.79 in 1.2 mi East 3.5 mph - 0.02 in   Overcast
8:53 AM 35.6 °F 32.8 °F 33.8 °F 93% 29.78 in 1.2 mi East 3.5 mph - 0.03 in   Overcast
9:13 AM 35.6 °F 30.7 °F 33.8 °F 93% 29.76 in 1.2 mi East 5.8 mph - 0.01 in   Overcast
9:33 AM 35.6 °F 31.7 °F 33.8 °F 93% 29.76 in 1.2 mi East 4.6 mph - 0.02 in Rain Light Rain
9:53 AM 35.6 °F 31.7 °F 33.8 °F 93% 29.78 in 1.2 mi SE 4.6 mph - 0.04 in Rain Rain
10:14 AM 35.6 °F - 33.8 °F 93% 29.77 in 1.0 mi Calm Calm - 0.05 in Rain Rain
10:33 AM 35.6 °F 31.7 °F 33.8 °F 93% 29.75 in 0.8 mi NE 4.6 mph - 0.08 in Rain Rain
10:53 AM 35.6 °F 29.9 °F 33.8 °F 93% 29.74 in 0.5 mi NE 6.9 mph - 0.13 in Rain Rain
11:13 AM 35.6 °F - 33.8 °F 93% 29.75 in 0.8 mi Calm Calm - 0.04 in Rain Heavy Rain
11:34 AM 35.6 °F 31.7 °F 33.8 °F 93% 29.75 in 0.5 mi NE 4.6 mph - 0.10 in Rain Rain
11:54 AM 35.6 °F 30.7 °F 33.8 °F 93% 29.74 in 0.5 mi NE 5.8 mph - 0.14 in Rain Rain
12:13 PM 35.6 °F 29.2 °F 33.8 °F 93% 29.72 in 0.5 mi NE 8.1 mph - 0.05 in Rain Rain
12:33 PM 35.6 °F 31.7 °F 33.8 °F 93% 29.73 in 1.0 mi NE 4.6 mph - 0.09 in Rain Rain
12:53 PM 35.6 °F 32.8 °F 33.8 °F 93% 29.73 in 1.0 mi NE 3.5 mph - 0.10 in Rain Light Rain
1:13 PM 35.6 °F 30.7 °F 33.8 °F 93% 29.71 in 0.8 mi ENE 5.8 mph - 0.03 in Rain Rain
1:33 PM 35.6 °F 31.7 °F 33.8 °F 93% 29.70 in 1.5 mi North 4.6 mph - 0.04 in Rain Light Rain
1:54 PM 35.6 °F 31.7 °F 33.8 °F 93% 29.71 in 2.0 mi NNW 4.6 mph - 0.04 in   Drizzle
2:13 PM 35.6 °F 30.7 °F 33.8 °F 93% 29.71 in 1.2 mi NNW 5.8 mph - 0.01 in Snow Light Snow
2:34 PM 35.6 °F 32.8 °F 33.8 °F 93% 29.71 in 1.0 mi North 3.5 mph - 0.03 in Snow Light Snow
2:53 PM 35.6 °F 29.2 °F 33.8 °F 93% 29.70 in 0.8 mi North 8.1 mph - 0.06 in Snow Light Snow
3:13 PM 35.6 °F 27.1 °F 33.8 °F 93% 29.69 in 1.5 mi North 12.7 mph - 0.02 in Snow Light Snow
3:33 PM 35.6 °F 27.5 °F 33.8 °F 93% 29.70 in 3.0 mi North 11.5 mph - 0.03 in Snow Light Snow
3:53 PM 35.6 °F 27.5 °F 33.8 °F 93% 29.70 in 1.5 mi North 11.5 mph - 0.03 in Snow Light Snow
4:13 PM 35.6 °F 28.0 °F 33.8 °F 93% 29.72 in 4.0 mi North 10.4 mph - N/A Snow Light Snow
4:33 PM 33.8 °F 23.2 °F 33.8 °F 100% 29.72 in 5.0 mi NNW 17.3 mph 21.9 mph 0.01 in Snow Light Snow
4:54 PM 33.8 °F 22.5 °F 30.2 °F 87% 29.75 in 3.0 mi NNW 19.6 mph 23.0 mph 0.01 in Snow Light Snow
5:13 PM 33.8 °F 21.9 °F 30.2 °F 87% 29.74 in 1.2 mi North 21.9 mph 25.3 mph N/A Snow Light Snow
5:34 PM 32.0 °F 20.5 °F 30.2 °F 93% 29.76 in 1.5 mi NNW 18.4 mph 27.6 mph N/A Snow Light Snow
5:53 PM 32.0 °F 19.8 °F 30.2 °F 93% 29.77 in 1.5 mi NNW 20.7 mph - N/A Snow Light Snow
6:13 PM 32.0 °F 20.1 °F 30.2 °F 93% 29.77 in 2.0 mi NNW 19.6 mph - N/A Snow Light Snow
6:33 PM 30.2 °F 17.1 °F 30.2 °F 100% 29.78 in 2.5 mi NNW 21.9 mph - N/A Snow Light Snow
6:53 PM 30.2 °F 18.5 °F 28.4 °F 93% 29.80 in 2.5 mi NNW 17.3 mph - N/A Snow Light Snow
7:13 PM 30.2 °F 17.8 °F 28.4 °F 93% 29.80 in 2.0 mi NNW 19.6 mph - N/A Snow Light Snow
7:33 PM 30.2 °F 16.8 °F 28.4 °F 93% 29.81 in 1.5 mi NNW 23.0 mph 28.8 mph N/A Snow Light Snow
7:54 PM 30.2 °F 17.4 °F 28.4 °F 93% 29.81 in 2.0 mi NNW 20.7 mph - N/A Snow Light Snow
8:13 PM 30.2 °F 17.4 °F 28.4 °F 93% 29.82 in 2.5 mi NNW 20.7 mph - N/A Snow Light Snow
8:54 PM 30.2 °F 17.8 °F 28.4 °F 93% 29.83 in 3.0 mi NNW 19.6 mph - N/A   Overcast
9:14 PM 30.2 °F 16.5 °F 28.4 °F 93% 29.85 in 2.5 mi NNW 24.2 mph 27.6 mph N/A Snow Light Snow
9:33 PM 30.2 °F 15.2 °F 28.4 °F 93% 29.85 in 1.2 mi NNW 29.9 mph - N/A Snow Light Snow
9:53 PM 28.4 °F 13.3 °F 26.6 °F 93% 29.87 in 1.0 mi NNW 27.6 mph 35.7 mph N/A Snow Light Snow
10:13 PM 28.4 °F 13.0 °F 26.6 °F 93% 29.88 in 1.5 mi NNW 28.8 mph 35.7 mph N/A Snow Light Snow
10:33 PM 28.4 °F 12.7 °F 26.6 °F 93% 29.88 in 1.0 mi NNW 29.9 mph 35.7 mph N/A Snow Snow
10:53 PM 28.4 °F 13.0 °F 26.6 °F 93% 29.89 in 1.2 mi NNW 28.8 mph 34.5 mph N/A Snow Light Snow
11:13 PM 28.4 °F 13.8 °F 24.8 °F 86% 29.90 in 1.5 mi NNW 25.3 mph 33.4 mph N/A Snow Light Snow
11:33 PM 28.4 °F 13.8 °F 24.8 °F 86% 29.91 in 1.8 mi NNW 25.3 mph 32.2 mph N/A Snow Light Snow
11:53 PM 28.4 °F 12.5 °F 24.8 °F 86% 29.89 in 1.0 mi NNW 31.1 mph 36.8 mph N/A Snow Light Snow